sensor_id;sensor_type;location;lat;lon;timestamp;P1;durP1;ratioP1;P2;durP2;ratioP2
44078;SDS011;29744;49.078;12.878;2022-10-16T00:04:28;0.40;;;0.40;;
44078;SDS011;29744;49.078;12.878;2022-10-16T00:09:28;1.55;;;0.70;;
44078;SDS011;29744;49.078;12.878;2022-10-16T00:14:28;1.17;;;0.70;;
44078;SDS011;29744;49.078;12.878;2022-10-16T00:19:29;0.88;;;0.50;;
44078;SDS011;29744;49.078;12.878;2022-10-16T00:24:29;0.95;;;0.70;;
44078;SDS011;29744;49.078;12.878;2022-10-16T00:29:29;0.97;;;0.50;;
44078;SDS011;29744;49.078;12.878;2022-10-16T00:34:30;0.82;;;0.60;;
44078;SDS011;29744;49.078;12.878;2022-10-16T00:39:30;0.68;;;0.55;;
44078;SDS011;29744;49.078;12.878;2022-10-16T00:50:18;0.75;;;0.45;;
44078;SDS011;29744;49.078;12.878;2022-10-16T00:55:24;1.13;;;0.50;;
44078;SDS011;29744;49.078;12.878;2022-10-16T01:00:26;0.88;;;0.50;;
44078;SDS011;29744;49.078;12.878;2022-10-16T01:05:30;0.70;;;0.60;;
44078;SDS011;29744;49.078;12.878;2022-10-16T01:10:40;1.20;;;0.57;;
44078;SDS011;29744;49.078;12.878;2022-10-16T01:16:35;0.65;;;0.50;;
44078;SDS011;29744;49.078;12.878;2022-10-16T01:21:10;0.60;;;0.50;;
44078;SDS011;29744;49.078;12.878;2022-10-16T01:31:19;0.82;;;0.52;;
44078;SDS011;29744;49.078;12.878;2022-10-16T01:41:32;0.40;;;0.40;;
44078;SDS011;29744;49.078;12.878;2022-10-16T01:46:36;0.90;;;0.65;;
44078;SDS011;29744;49.078;12.878;2022-10-16T01:51:39;0.85;;;0.55;;
44078;SDS011;29744;49.078;12.878;2022-10-16T01:56:43;0.82;;;0.60;;
44078;SDS011;29744;49.078;12.878;2022-10-16T02:01:47;1.15;;;0.60;;
44078;SDS011;29744;49.078;12.878;2022-10-16T02:06:52;0.98;;;0.40;;
44078;SDS011;29744;49.078;12.878;2022-10-16T02:11:53;0.88;;;0.60;;
44078;SDS011;29744;49.078;12.878;2022-10-16T02:16:56;0.90;;;0.47;;
44078;SDS011;29744;49.078;12.878;2022-10-16T02:21:58;1.10;;;0.60;;
44078;SDS011;29744;49.078;12.878;2022-10-16T02:37:13;0.70;;;0.50;;
44078;SDS011;29744;49.078;12.878;2022-10-16T02:42:14;0.40;;;0.40;;
44078;SDS011;29744;49.078;12.878;2022-10-16T02:47:15;0.80;;;0.50;;
44078;SDS011;29744;49.078;12.878;2022-10-16T02:52:15;0.57;;;0.43;;
44078;SDS011;29744;49.078;12.878;2022-10-16T02:57:15;0.65;;;0.60;;
44078;SDS011;29744;49.078;12.878;2022-10-16T03:02:16;0.50;;;0.40;;
44078;SDS011;29744;49.078;12.878;2022-10-16T03:07:16;0.50;;;0.50;;
44078;SDS011;29744;49.078;12.878;2022-10-16T03:12:16;0.50;;;0.40;;
44078;SDS011;29744;49.078;12.878;2022-10-16T03:17:16;0.55;;;0.40;;
44078;SDS011;29744;49.078;12.878;2022-10-16T03:22:17;0.60;;;0.47;;
44078;SDS011;29744;49.078;12.878;2022-10-16T03:27:17;0.75;;;0.50;;
44078;SDS011;29744;49.078;12.878;2022-10-16T03:32:18;0.57;;;0.50;;
44078;SDS011;29744;49.078;12.878;2022-10-16T03:37:19;1.20;;;0.70;;
44078;SDS011;29744;49.078;12.878;2022-10-16T03:42:20;0.47;;;0.40;;
44078;SDS011;29744;49.078;12.878;2022-10-16T03:47:20;0.70;;;0.50;;
44078;SDS011;29744;49.078;12.878;2022-10-16T03:52:23;0.73;;;0.55;;
44078;SDS011;29744;49.078;12.878;2022-10-16T03:57:23;1.10;;;0.50;;
44078;SDS011;29744;49.078;12.878;2022-10-16T04:02:23;0.75;;;0.50;;
44078;SDS011;29744;49.078;12.878;2022-10-16T04:07:24;0.80;;;0.50;;
44078;SDS011;29744;49.078;12.878;2022-10-16T04:12:25;0.40;;;0.40;;
44078;SDS011;29744;49.078;12.878;2022-10-16T04:17:26;0.50;;;0.40;;
44078;SDS011;29744;49.078;12.878;2022-10-16T04:22:26;0.73;;;0.47;;
44078;SDS011;29744;49.078;12.878;2022-10-16T04:27:26;0.63;;;0.50;;
44078;SDS011;29744;49.078;12.878;2022-10-16T04:32:27;0.30;;;0.30;;
44078;SDS011;29744;49.078;12.878;2022-10-16T04:37:27;0.60;;;0.40;;
44078;SDS011;29744;49.078;12.878;2022-10-16T04:42:27;0.60;;;0.40;;
44078;SDS011;29744;49.078;12.878;2022-10-16T04:47:28;0.68;;;0.50;;
44078;SDS011;29744;49.078;12.878;2022-10-16T04:52:28;0.85;;;0.60;;
44078;SDS011;29744;49.078;12.878;2022-10-16T04:57:29;0.55;;;0.38;;
44078;SDS011;29744;49.078;12.878;2022-10-16T05:02:29;0.82;;;0.50;;
44078;SDS011;29744;49.078;12.878;2022-10-16T05:07:30;0.88;;;0.55;;
44078;SDS011;29744;49.078;12.878;2022-10-16T05:12:30;0.50;;;0.40;;
44078;SDS011;29744;49.078;12.878;2022-10-16T05:17:30;0.57;;;0.45;;
44078;SDS011;29744;49.078;12.878;2022-10-16T05:22:31;0.65;;;0.50;;
44078;SDS011;29744;49.078;12.878;2022-10-16T05:27:31;0.40;;;0.40;;
44078;SDS011;29744;49.078;12.878;2022-10-16T05:32:31;1.38;;;0.57;;
44078;SDS011;29744;49.078;12.878;2022-10-16T05:37:32;0.88;;;0.40;;
44078;SDS011;29744;49.078;12.878;2022-10-16T05:42:32;0.40;;;0.40;;
44078;SDS011;29744;49.078;12.878;2022-10-16T05:47:32;0.75;;;0.40;;
44078;SDS011;29744;49.078;12.878;2022-10-16T05:52:33;0.65;;;0.50;;
44078;SDS011;29744;49.078;12.878;2022-10-16T05:57:33;0.40;;;0.28;;
44078;SDS011;29744;49.078;12.878;2022-10-16T06:02:33;0.65;;;0.50;;
44078;SDS011;29744;49.078;12.878;2022-10-16T06:07:34;0.40;;;0.35;;
44078;SDS011;29744;49.078;12.878;2022-10-16T06:12:38;0.55;;;0.40;;
44078;SDS011;29744;49.078;12.878;2022-10-16T06:17:38;0.40;;;0.40;;
44078;SDS011;29744;49.078;12.878;2022-10-16T06:22:38;0.82;;;0.50;;
44078;SDS011;29744;49.078;12.878;2022-10-16T06:27:39;0.73;;;0.50;;
44078;SDS011;29744;49.078;12.878;2022-10-16T06:32:43;0.70;;;0.43;;
44078;SDS011;29744;49.078;12.878;2022-10-16T06:37:43;0.47;;;0.40;;
44078;SDS011;29744;49.078;12.878;2022-10-16T06:42:44;0.50;;;0.40;;
44078;SDS011;29744;49.078;12.878;2022-10-16T06:47:44;0.60;;;0.40;;
44078;SDS011;29744;49.078;12.878;2022-10-16T06:52:44;0.85;;;0.47;;
44078;SDS011;29744;49.078;12.878;2022-10-16T06:57:46;0.52;;;0.50;;
44078;SDS011;29744;49.078;12.878;2022-10-16T07:02:47;0.50;;;0.40;;
44078;SDS011;29744;49.078;12.878;2022-10-16T07:07:48;0.50;;;0.43;;
44078;SDS011;29744;49.078;12.878;2022-10-16T07:12:48;0.43;;;0.40;;
44078;SDS011;29744;49.078;12.878;2022-10-16T07:17:48;0.40;;;0.40;;
44078;SDS011;29744;49.078;12.878;2022-10-16T07:22:48;0.85;;;0.60;;
44078;SDS011;29744;49.078;12.878;2022-10-16T07:27:49;0.47;;;0.40;;
44078;SDS011;29744;49.078;12.878;2022-10-16T07:32:49;0.40;;;0.38;;
44078;SDS011;29744;49.078;12.878;2022-10-16T07:37:49;0.30;;;0.30;;
44078;SDS011;29744;49.078;12.878;2022-10-16T07:42:49;0.75;;;0.45;;
44078;SDS011;29744;49.078;12.878;2022-10-16T07:47:50;0.30;;;0.30;;
44078;SDS011;29744;49.078;12.878;2022-10-16T07:52:50;0.50;;;0.50;;
44078;SDS011;29744;49.078;12.878;2022-10-16T07:57:50;0.60;;;0.40;;
44078;SDS011;29744;49.078;12.878;2022-10-16T08:02:51;0.50;;;0.40;;
44078;SDS011;29744;49.078;12.878;2022-10-16T08:07:51;1.98;;;0.90;;
44078;SDS011;29744;49.078;12.878;2022-10-16T08:12:51;3.35;;;2.03;;
44078;SDS011;29744;49.078;12.878;2022-10-16T08:17:59;4.72;;;2.58;;
44078;SDS011;29744;49.078;12.878;2022-10-16T08:23:01;3.25;;;2.20;;
44078;SDS011;29744;49.078;12.878;2022-10-16T08:28:05;3.35;;;2.20;;
44078;SDS011;29744;49.078;12.878;2022-10-16T08:33:07;4.82;;;2.30;;
44078;SDS011;29744;49.078;12.878;2022-10-16T08:38:07;4.03;;;2.00;;
44078;SDS011;29744;49.078;12.878;2022-10-16T08:48:26;3.15;;;2.25;;
44078;SDS011;29744;49.078;12.878;2022-10-16T08:53:36;4.57;;;1.90;;
44078;SDS011;29744;49.078;12.878;2022-10-16T08:58:42;2.90;;;1.75;;
44078;SDS011;29744;49.078;12.878;2022-10-16T09:09:21;2.30;;;1.42;;
44078;SDS011;29744;49.078;12.878;2022-10-16T09:20:10;5.03;;;1.88;;
44078;SDS011;29744;49.078;12.878;2022-10-16T09:25:16;4.70;;;2.03;;
44078;SDS011;29744;49.078;12.878;2022-10-16T09:30:20;5.25;;;2.25;;
44078;SDS011;29744;49.078;12.878;2022-10-16T09:35:27;5.45;;;2.50;;
44078;SDS011;29744;49.078;12.878;2022-10-16T09:40:37;5.68;;;2.88;;
44078;SDS011;29744;49.078;12.878;2022-10-16T09:45:38;6.15;;;3.15;;
44078;SDS011;29744;49.078;12.878;2022-10-16T09:50:39;4.82;;;2.83;;
44078;SDS011;29744;49.078;12.878;2022-10-16T09:55:49;6.63;;;3.08;;
44078;SDS011;29744;49.078;12.878;2022-10-16T10:00:51;6.53;;;2.97;;
44078;SDS011;29744;49.078;12.878;2022-10-16T10:05:53;5.60;;;2.97;;
44078;SDS011;29744;49.078;12.878;2022-10-16T10:10:53;4.70;;;2.42;;
44078;SDS011;29744;49.078;12.878;2022-10-16T10:15:54;6.90;;;2.97;;
44078;SDS011;29744;49.078;12.878;2022-10-16T10:21:02;5.00;;;2.50;;
44078;SDS011;29744;49.078;12.878;2022-10-16T10:52:13;3.95;;;2.30;;
44078;SDS011;29744;49.078;12.878;2022-10-16T10:57:35;6.03;;;2.50;;
44078;SDS011;29744;49.078;12.878;2022-10-16T11:03:11;5.10;;;2.53;;
44078;SDS011;29744;49.078;12.878;2022-10-16T11:08:18;4.88;;;2.45;;
44078;SDS011;29744;49.078;12.878;2022-10-16T11:13:38;5.80;;;2.58;;
44078;SDS011;29744;49.078;12.878;2022-10-16T11:18:56;4.30;;;2.45;;
44078;SDS011;29744;49.078;12.878;2022-10-16T11:24:03;6.30;;;2.67;;
44078;SDS011;29744;49.078;12.878;2022-10-16T11:29:16;5.25;;;2.88;;
44078;SDS011;29744;49.078;12.878;2022-10-16T11:39:52;4.75;;;2.60;;
44078;SDS011;29744;49.078;12.878;2022-10-16T11:45:02;4.25;;;2.35;;
44078;SDS011;29744;49.078;12.878;2022-10-16T11:50:15;4.82;;;2.50;;
44078;SDS011;29744;49.078;12.878;2022-10-16T11:55:23;3.47;;;2.15;;
44078;SDS011;29744;49.078;12.878;2022-10-16T12:00:31;4.00;;;2.50;;
44078;SDS011;29744;49.078;12.878;2022-10-16T12:16:27;4.60;;;2.25;;
44078;SDS011;29744;49.078;12.878;2022-10-16T12:21:30;4.18;;;2.10;;
44078;SDS011;29744;49.078;12.878;2022-10-16T12:26:31;4.50;;;2.30;;
44078;SDS011;29744;49.078;12.878;2022-10-16T12:31:46;4.70;;;2.63;;
44078;SDS011;29744;49.078;12.878;2022-10-16T12:36:49;4.50;;;2.30;;
44078;SDS011;29744;49.078;12.878;2022-10-16T12:42:00;4.00;;;2.33;;
44078;SDS011;29744;49.078;12.878;2022-10-16T12:47:18;3.58;;;2.15;;
44078;SDS011;29744;49.078;12.878;2022-10-16T12:52:28;3.42;;;2.10;;
44078;SDS011;29744;49.078;12.878;2022-10-16T13:13:49;3.90;;;2.17;;
44078;SDS011;29744;49.078;12.878;2022-10-16T13:30:10;3.88;;;2.25;;
44078;SDS011;29744;49.078;12.878;2022-10-16T13:35:21;3.60;;;1.83;;
44078;SDS011;29744;49.078;12.878;2022-10-16T13:40:24;4.00;;;2.28;;
44078;SDS011;29744;49.078;12.878;2022-10-16T13:45:24;3.50;;;2.08;;
44078;SDS011;29744;49.078;12.878;2022-10-16T13:50:25;4.68;;;1.88;;
44078;SDS011;29744;49.078;12.878;2022-10-16T13:55:32;4.05;;;2.00;;
44078;SDS011;29744;49.078;12.878;2022-10-16T14:00:33;3.33;;;1.80;;
44078;SDS011;29744;49.078;12.878;2022-10-16T14:05:34;4.57;;;2.35;;
44078;SDS011;29744;49.078;12.878;2022-10-16T14:10:34;3.63;;;2.10;;
44078;SDS011;29744;49.078;12.878;2022-10-16T14:15:35;3.90;;;1.98;;
44078;SDS011;29744;49.078;12.878;2022-10-16T14:20:36;4.00;;;2.05;;
44078;SDS011;29744;49.078;12.878;2022-10-16T14:25:37;3.58;;;1.95;;
44078;SDS011;29744;49.078;12.878;2022-10-16T14:30:37;4.07;;;2.30;;
44078;SDS011;29744;49.078;12.878;2022-10-16T14:35:38;4.25;;;2.17;;
44078;SDS011;29744;49.078;12.878;2022-10-16T14:40:45;3.63;;;1.92;;
44078;SDS011;29744;49.078;12.878;2022-10-16T14:45:52;2.95;;;1.67;;
44078;SDS011;29744;49.078;12.878;2022-10-16T14:50:54;3.17;;;1.77;;
44078;SDS011;29744;49.078;12.878;2022-10-16T14:55:54;2.70;;;1.63;;
44078;SDS011;29744;49.078;12.878;2022-10-16T15:00:55;4.07;;;1.95;;
44078;SDS011;29744;49.078;12.878;2022-10-16T15:05:56;3.97;;;2.10;;
44078;SDS011;29744;49.078;12.878;2022-10-16T15:10:56;4.18;;;2.03;;
44078;SDS011;29744;49.078;12.878;2022-10-16T15:15:56;3.50;;;1.85;;
44078;SDS011;29744;49.078;12.878;2022-10-16T15:20:58;3.58;;;1.73;;
44078;SDS011;29744;49.078;12.878;2022-10-16T15:25:58;3.55;;;1.83;;
44078;SDS011;29744;49.078;12.878;2022-10-16T15:30:59;2.95;;;1.60;;
44078;SDS011;29744;49.078;12.878;2022-10-16T15:35:59;3.88;;;2.00;;
44078;SDS011;29744;49.078;12.878;2022-10-16T15:41:00;2.80;;;1.83;;
44078;SDS011;29744;49.078;12.878;2022-10-16T15:46:05;2.95;;;1.70;;
44078;SDS011;29744;49.078;12.878;2022-10-16T15:51:10;3.78;;;1.77;;
44078;SDS011;29744;49.078;12.878;2022-10-16T15:56:11;2.75;;;1.67;;
44078;SDS011;29744;49.078;12.878;2022-10-16T16:01:12;3.70;;;1.80;;
44078;SDS011;29744;49.078;12.878;2022-10-16T16:06:13;3.72;;;2.08;;
44078;SDS011;29744;49.078;12.878;2022-10-16T16:11:14;4.13;;;1.90;;
44078;SDS011;29744;49.078;12.878;2022-10-16T16:16:16;2.55;;;1.60;;
44078;SDS011;29744;49.078;12.878;2022-10-16T16:21:17;3.10;;;1.58;;
44078;SDS011;29744;49.078;12.878;2022-10-16T16:26:25;3.17;;;1.80;;
44078;SDS011;29744;49.078;12.878;2022-10-16T16:31:27;2.90;;;1.70;;
44078;SDS011;29744;49.078;12.878;2022-10-16T16:36:28;3.67;;;2.10;;
44078;SDS011;29744;49.078;12.878;2022-10-16T16:41:29;2.75;;;1.60;;
44078;SDS011;29744;49.078;12.878;2022-10-16T16:46:30;3.60;;;1.80;;
44078;SDS011;29744;49.078;12.878;2022-10-16T16:51:32;2.85;;;1.52;;
44078;SDS011;29744;49.078;12.878;2022-10-16T16:56:33;3.30;;;1.90;;
44078;SDS011;29744;49.078;12.878;2022-10-16T17:01:34;2.65;;;1.55;;
44078;SDS011;29744;49.078;12.878;2022-10-16T17:06:34;3.40;;;1.60;;
44078;SDS011;29744;49.078;12.878;2022-10-16T17:11:35;3.15;;;1.75;;
44078;SDS011;29744;49.078;12.878;2022-10-16T17:16:35;2.40;;;1.58;;
44078;SDS011;29744;49.078;12.878;2022-10-16T17:21:37;3.05;;;1.60;;
44078;SDS011;29744;49.078;12.878;2022-10-16T17:26:38;2.50;;;1.42;;
44078;SDS011;29744;49.078;12.878;2022-10-16T17:31:40;2.78;;;1.63;;
44078;SDS011;29744;49.078;12.878;2022-10-16T17:36:41;2.17;;;1.30;;
44078;SDS011;29744;49.078;12.878;2022-10-16T17:41:46;2.17;;;1.30;;
44078;SDS011;29744;49.078;12.878;2022-10-16T17:46:48;3.35;;;1.55;;
44078;SDS011;29744;49.078;12.878;2022-10-16T17:51:50;3.00;;;1.70;;
44078;SDS011;29744;49.078;12.878;2022-10-16T17:56:51;3.58;;;1.50;;
44078;SDS011;29744;49.078;12.878;2022-10-16T18:01:52;2.85;;;1.70;;
44078;SDS011;29744;49.078;12.878;2022-10-16T18:06:52;3.20;;;1.75;;
44078;SDS011;29744;49.078;12.878;2022-10-16T18:11:55;3.40;;;1.52;;
44078;SDS011;29744;49.078;12.878;2022-10-16T18:17:01;2.70;;;1.42;;
44078;SDS011;29744;49.078;12.878;2022-10-16T18:22:01;2.30;;;1.42;;
44078;SDS011;29744;49.078;12.878;2022-10-16T18:27:02;3.03;;;1.73;;
44078;SDS011;29744;49.078;12.878;2022-10-16T18:32:02;2.40;;;1.53;;
44078;SDS011;29744;49.078;12.878;2022-10-16T18:37:02;2.92;;;1.70;;
44078;SDS011;29744;49.078;12.878;2022-10-16T18:42:02;2.25;;;1.33;;
44078;SDS011;29744;49.078;12.878;2022-10-16T18:47:03;2.33;;;1.40;;
44078;SDS011;29744;49.078;12.878;2022-10-16T18:52:03;2.75;;;1.45;;
44078;SDS011;29744;49.078;12.878;2022-10-16T18:57:05;2.13;;;1.23;;
44078;SDS011;29744;49.078;12.878;2022-10-16T19:02:05;2.22;;;1.33;;
44078;SDS011;29744;49.078;12.878;2022-10-16T19:07:06;2.65;;;1.42;;
44078;SDS011;29744;49.078;12.878;2022-10-16T19:12:06;2.90;;;1.52;;
44078;SDS011;29744;49.078;12.878;2022-10-16T19:17:07;2.20;;;1.20;;
44078;SDS011;29744;49.078;12.878;2022-10-16T19:22:07;2.63;;;1.30;;
44078;SDS011;29744;49.078;12.878;2022-10-16T19:27:13;2.88;;;1.50;;
44078;SDS011;29744;49.078;12.878;2022-10-16T19:32:13;2.00;;;1.20;;
44078;SDS011;29744;49.078;12.878;2022-10-16T19:37:13;2.08;;;1.35;;
44078;SDS011;29744;49.078;12.878;2022-10-16T19:42:13;2.35;;;1.50;;
44078;SDS011;29744;49.078;12.878;2022-10-16T19:47:14;2.38;;;1.30;;
44078;SDS011;29744;49.078;12.878;2022-10-16T19:52:14;2.25;;;1.30;;
44078;SDS011;29744;49.078;12.878;2022-10-16T19:57:15;2.22;;;1.35;;
44078;SDS011;29744;49.078;12.878;2022-10-16T20:02:16;2.70;;;1.40;;
44078;SDS011;29744;49.078;12.878;2022-10-16T20:07:16;2.03;;;1.25;;
44078;SDS011;29744;49.078;12.878;2022-10-16T20:12:17;2.08;;;1.10;;
44078;SDS011;29744;49.078;12.878;2022-10-16T20:17:17;2.88;;;1.30;;
44078;SDS011;29744;49.078;12.878;2022-10-16T20:22:17;1.80;;;1.20;;
44078;SDS011;29744;49.078;12.878;2022-10-16T20:27:18;2.05;;;1.25;;
44078;SDS011;29744;49.078;12.878;2022-10-16T20:32:18;1.83;;;1.10;;
44078;SDS011;29744;49.078;12.878;2022-10-16T20:37:18;2.00;;;1.20;;
44078;SDS011;29744;49.078;12.878;2022-10-16T20:42:18;2.45;;;1.42;;
44078;SDS011;29744;49.078;12.878;2022-10-16T20:47:19;2.65;;;1.35;;
44078;SDS011;29744;49.078;12.878;2022-10-16T20:52:19;2.33;;;1.20;;
44078;SDS011;29744;49.078;12.878;2022-10-16T20:57:19;2.70;;;1.33;;
44078;SDS011;29744;49.078;12.878;2022-10-16T21:02:20;2.42;;;1.38;;
44078;SDS011;29744;49.078;12.878;2022-10-16T21:07:21;1.80;;;1.20;;
44078;SDS011;29744;49.078;12.878;2022-10-16T21:12:22;2.10;;;1.27;;
44078;SDS011;29744;49.078;12.878;2022-10-16T21:17:23;2.10;;;1.20;;
44078;SDS011;29744;49.078;12.878;2022-10-16T21:22:27;2.50;;;1.27;;
44078;SDS011;29744;49.078;12.878;2022-10-16T21:27:28;1.95;;;1.17;;
44078;SDS011;29744;49.078;12.878;2022-10-16T21:32:28;1.63;;;1.05;;
44078;SDS011;29744;49.078;12.878;2022-10-16T21:37:29;2.30;;;1.20;;
44078;SDS011;29744;49.078;12.878;2022-10-16T21:42:29;1.90;;;1.17;;
44078;SDS011;29744;49.078;12.878;2022-10-16T21:47:29;1.80;;;1.20;;
44078;SDS011;29744;49.078;12.878;2022-10-16T21:52:30;1.55;;;1.00;;
44078;SDS011;29744;49.078;12.878;2022-10-16T21:57:30;2.83;;;1.48;;
44078;SDS011;29744;49.078;12.878;2022-10-16T22:02:30;1.48;;;0.90;;
44078;SDS011;29744;49.078;12.878;2022-10-16T22:07:30;2.00;;;1.00;;
44078;SDS011;29744;49.078;12.878;2022-10-16T22:12:31;1.75;;;1.10;;
44078;SDS011;29744;49.078;12.878;2022-10-16T22:17:31;1.80;;;1.10;;
44078;SDS011;29744;49.078;12.878;2022-10-16T22:22:31;1.90;;;1.20;;
44078;SDS011;29744;49.078;12.878;2022-10-16T22:27:32;1.98;;;1.08;;
44078;SDS011;29744;49.078;12.878;2022-10-16T22:32:32;2.10;;;1.02;;
44078;SDS011;29744;49.078;12.878;2022-10-16T22:37:32;1.98;;;1.10;;
44078;SDS011;29744;49.078;12.878;2022-10-16T22:42:33;2.05;;;1.17;;
44078;SDS011;29744;49.078;12.878;2022-10-16T22:47:33;2.20;;;1.05;;
44078;SDS011;29744;49.078;12.878;2022-10-16T22:52:33;1.42;;;1.00;;
44078;SDS011;29744;49.078;12.878;2022-10-16T22:57:35;1.58;;;0.90;;
44078;SDS011;29744;49.078;12.878;2022-10-16T23:02:35;1.55;;;0.90;;
44078;SDS011;29744;49.078;12.878;2022-10-16T23:07:36;1.92;;;1.10;;
44078;SDS011;29744;49.078;12.878;2022-10-16T23:12:36;1.77;;;1.00;;
44078;SDS011;29744;49.078;12.878;2022-10-16T23:17:37;2.10;;;1.10;;
44078;SDS011;29744;49.078;12.878;2022-10-16T23:22:37;1.92;;;1.00;;
44078;SDS011;29744;49.078;12.878;2022-10-16T23:27:37;2.25;;;1.20;;
44078;SDS011;29744;49.078;12.878;2022-10-16T23:32:37;1.77;;;1.10;;
44078;SDS011;29744;49.078;12.878;2022-10-16T23:37:40;1.33;;;0.98;;
44078;SDS011;29744;49.078;12.878;2022-10-16T23:42:40;1.90;;;1.00;;
44078;SDS011;29744;49.078;12.878;2022-10-16T23:47:40;2.13;;;1.27;;
44078;SDS011;29744;49.078;12.878;2022-10-16T23:52:40;2.10;;;1.10;;
44078;SDS011;29744;49.078;12.878;2022-10-16T23:57:41;1.40;;;1.10;;
